Ashford, Connecticut
Current Conditions -  °F | °C
As of 1:52 AM on Wednesday 26 Nov 2014 (Local Time) from KIJD Reporting Station
Clear Clear  
Wind Chill: 40°   Ceiling: Unl
Heat Index: 40°   Visibility: 10mi
Dew Point: 34°   Wind: 3mph
Humidity: 79%   Direction: 20°NNE
Pressure: 30.15"   Gusts: NA
Location:  41.87°N, 72.12°W
Report Text: KIJD 260652Z AUTO 02003KT 10SM CLR 04/01 A3015 RMK AO2 SLP210 T00440011
Loading
Personal Weather Stations






























Interactive Weather Map New forecast layout! Learn more

10-Day Weather Forecast

Advertisements
Track Severe Weather on mobile